createdAt,value
2022-12-24T00:01:20.193Z,12.90
2022-12-24T00:03:47.408Z,13.18
2022-12-24T00:06:20.307Z,14.02
2022-12-24T00:11:14.536Z,14.05
2022-12-24T00:13:41.492Z,15.20
2022-12-24T00:16:08.444Z,17.08
2022-12-24T00:18:38.680Z,17.52
2022-12-24T00:21:10.432Z,16.38
2022-12-24T00:23:37.388Z,17.13
2022-12-24T00:26:04.777Z,17.20
2022-12-24T00:28:31.795Z,18.58
2022-12-24T00:30:58.880Z,20.55
2022-12-24T00:33:25.907Z,17.25
2022-12-24T00:35:53.490Z,16.00
2022-12-24T00:38:20.676Z,14.63
2022-12-24T00:40:47.664Z,13.85
2022-12-24T00:43:14.780Z,14.35
2022-12-24T00:45:41.697Z,13.68
2022-12-24T00:48:08.694Z,11.98
2022-12-24T00:50:35.716Z,11.85
2022-12-24T00:53:02.681Z,11.45
2022-12-24T00:55:29.679Z,10.93
2022-12-24T00:57:56.655Z,12.10
2022-12-24T01:00:23.671Z,12.73
2022-12-24T01:02:50.817Z,14.10
2022-12-24T01:05:20.740Z,11.95
2022-12-24T01:07:48.281Z,11.30
2022-12-24T01:10:19.464Z,12.13
2022-12-24T01:12:47.483Z,8.82
2022-12-24T01:15:15.869Z,10.95
2022-12-24T01:17:42.985Z,9.50
2022-12-24T01:20:15.707Z,10.00
2022-12-24T01:22:42.925Z,9.63
2022-12-24T01:25:10.338Z,10.38
2022-12-24T01:27:38.021Z,9.18
2022-12-24T01:30:14.522Z,10.40
2022-12-24T01:32:41.742Z,9.23
2022-12-24T01:35:10.177Z,7.63
2022-12-24T01:37:37.190Z,9.88
2022-12-24T01:40:25.579Z,9.27
2022-12-24T01:43:12.296Z,9.18
2022-12-24T01:45:46.993Z,6.63
2022-12-24T01:48:47.236Z,8.07
2022-12-24T01:51:53.657Z,8.98
2022-12-24T01:54:30.957Z,8.73
2022-12-24T01:57:15.982Z,7.60
2022-12-24T01:59:48.327Z,8.10
2022-12-24T02:02:18.000Z,7.60
2022-12-24T02:05:14.324Z,8.23
2022-12-24T02:07:43.170Z,7.25
2022-12-24T02:10:13.388Z,7.90
2022-12-24T02:12:43.003Z,5.28
2022-12-24T02:15:14.312Z,5.22
2022-12-24T02:18:38.195Z,4.90
2022-12-24T02:21:33.215Z,4.78
2022-12-24T02:24:08.626Z,5.13
2022-12-24T02:26:38.630Z,6.15
2022-12-24T02:29:40.447Z,6.38
2022-12-24T02:32:24.379Z,5.72
2022-12-24T02:35:00.821Z,5.43
2022-12-24T02:37:37.231Z,5.40
2022-12-24T02:40:16.081Z,6.40
2022-12-24T02:42:51.450Z,6.25
2022-12-24T02:45:25.926Z,6.55
2022-12-24T02:47:55.983Z,6.05
2022-12-24T02:50:24.483Z,6.20
2022-12-24T02:52:51.866Z,5.90
2022-12-24T02:56:08.930Z,7.35
2022-12-24T02:59:00.032Z,5.63
2022-12-24T03:02:09.355Z,6.18
2022-12-24T03:05:19.727Z,5.75
2022-12-24T03:08:35.541Z,6.45
2022-12-24T03:11:15.402Z,8.07
2022-12-24T03:13:44.506Z,7.13
2022-12-24T03:16:17.313Z,7.35
2022-12-24T03:18:49.326Z,6.53
2022-12-24T03:21:22.647Z,8.80
2022-12-24T03:23:50.562Z,7.10
2022-12-24T03:26:20.222Z,10.05
2022-12-24T03:28:48.575Z,8.68
2022-12-24T03:31:17.019Z,7.35
2022-12-24T03:33:44.524Z,7.10
2022-12-24T03:36:11.857Z,7.57
2022-12-24T03:38:39.223Z,8.10
2022-12-24T03:41:07.521Z,9.80
2022-12-24T03:43:34.998Z,8.35
2022-12-24T03:46:07.702Z,7.35
2022-12-24T03:48:36.055Z,8.50
2022-12-24T03:51:04.644Z,10.30
2022-12-24T03:53:32.416Z,7.80
2022-12-24T03:55:59.442Z,8.65
2022-12-24T03:58:26.396Z,7.70
2022-12-24T04:00:54.360Z,8.93
2022-12-24T04:03:21.658Z,8.63
2022-12-24T04:05:48.786Z,9.70
2022-12-24T04:08:15.776Z,8.23
2022-12-24T04:10:42.781Z,7.80
2022-12-24T04:13:09.675Z,7.63
2022-12-24T04:15:36.618Z,7.68
2022-12-24T04:18:03.738Z,8.38
2022-12-24T04:20:30.659Z,8.00
2022-12-24T04:22:57.568Z,8.57
2022-12-24T04:25:24.496Z,9.48
2022-12-24T04:27:51.414Z,9.43
2022-12-24T04:30:21.179Z,9.88
2022-12-24T04:32:48.092Z,10.98
2022-12-24T04:35:15.201Z,12.05
2022-12-24T04:37:42.210Z,13.35
2022-12-24T04:40:10.124Z,10.93
2022-12-24T04:42:40.011Z,9.32
2022-12-24T04:45:07.894Z,9.68
2022-12-24T04:47:34.978Z,10.07
2022-12-24T04:50:02.025Z,9.48
2022-12-24T04:52:29.252Z,9.93
2022-12-24T04:54:56.345Z,10.02
2022-12-24T04:57:23.298Z,11.13
2022-12-24T04:59:50.237Z,11.73
2022-12-24T05:02:17.407Z,11.82
2022-12-24T05:04:44.573Z,10.02
2022-12-24T05:07:11.513Z,10.23
2022-12-24T05:09:38.399Z,10.02
2022-12-24T05:23:57.039Z,12.80
2022-12-24T05:26:53.868Z,13.02
2022-12-24T05:29:20.948Z,11.50
2022-12-24T05:31:48.599Z,11.18
2022-12-24T05:34:16.905Z,10.65
2022-12-24T05:36:44.577Z,8.88
2022-12-24T05:39:18.753Z,9.32
2022-12-24T05:41:46.256Z,9.52
2022-12-24T05:44:14.402Z,9.05
2022-12-24T05:46:41.634Z,8.00
2022-12-24T05:49:08.717Z,8.50
2022-12-24T05:51:35.738Z,8.70
2022-12-24T05:54:02.906Z,8.98
2022-12-24T05:56:29.846Z,8.80
2022-12-24T05:58:57.986Z,10.13
2022-12-24T06:01:25.180Z,9.65
2022-12-24T06:03:53.608Z,9.15
2022-12-24T06:06:27.416Z,9.38
2022-12-24T06:08:56.023Z,8.27
2022-12-24T06:11:27.096Z,8.15
2022-12-24T06:13:54.871Z,9.57
2022-12-24T06:16:23.428Z,9.45
2022-12-24T06:18:51.144Z,9.50
2022-12-24T06:21:19.185Z,8.30
2022-12-24T06:23:47.585Z,9.05
2022-12-24T06:26:19.475Z,8.77
2022-12-24T06:28:47.646Z,8.38
2022-12-24T06:31:19.701Z,8.48
2022-12-24T06:33:47.317Z,7.87
2022-12-24T06:36:24.248Z,8.18
2022-12-24T06:38:53.703Z,8.98
2022-12-24T06:41:22.338Z,8.18
2022-12-24T06:43:52.250Z,9.30
2022-12-24T06:46:20.095Z,10.35
2022-12-24T06:48:48.092Z,13.90
2022-12-24T06:51:19.558Z,12.52
2022-12-24T06:53:47.036Z,11.68
2022-12-24T06:56:14.839Z,10.05
2022-12-24T06:58:42.449Z,10.10
2022-12-24T07:01:13.931Z,9.13
2022-12-24T07:03:41.591Z,9.35
2022-12-24T07:06:21.464Z,11.13
2022-12-24T07:08:48.575Z,9.40
2022-12-24T07:11:16.937Z,9.68
2022-12-24T07:13:46.761Z,10.75
2022-12-24T07:16:13.949Z,12.85
2022-12-24T07:18:40.955Z,12.55
2022-12-24T07:21:07.961Z,14.40
2022-12-24T07:23:35.226Z,19.17
2022-12-24T07:26:04.777Z,17.05
2022-12-24T07:28:32.000Z,16.48
2022-12-24T07:31:00.280Z,12.98
2022-12-24T07:33:27.975Z,12.55
2022-12-24T07:36:07.730Z,13.48
2022-12-24T07:38:35.714Z,12.80
2022-12-24T07:41:02.697Z,12.75
2022-12-24T07:43:29.822Z,11.18
2022-12-24T07:46:00.028Z,11.38
2022-12-24T07:48:29.626Z,10.52
2022-12-24T07:50:57.830Z,11.10
2022-12-24T07:53:26.079Z,10.00
2022-12-24T07:55:53.368Z,11.07
2022-12-24T07:58:20.474Z,11.73
2022-12-24T08:00:47.677Z,10.93
2022-12-24T08:03:21.313Z,12.90
2022-12-24T08:05:49.331Z,13.20
2022-12-24T08:08:16.365Z,17.85
2022-12-24T08:10:45.478Z,14.98
2022-12-24T08:13:14.454Z,15.32
2022-12-24T08:15:41.949Z,16.48
2022-12-24T08:18:09.775Z,12.95
2022-12-24T08:20:41.416Z,11.80
2022-12-24T08:23:09.582Z,14.20
2022-12-24T08:25:37.732Z,13.73
2022-12-24T08:28:06.504Z,16.85
2022-12-24T08:30:33.921Z,18.35
2022-12-24T08:33:00.948Z,16.95
2022-12-24T08:35:28.028Z,29.83
2022-12-24T08:37:55.090Z,23.80
2022-12-24T08:40:22.533Z,29.25
2022-12-24T08:54:59.419Z,15.63
2022-12-24T08:57:26.362Z,13.35
2022-12-24T08:59:54.013Z,12.25
2022-12-24T09:02:21.443Z,12.38
2022-12-24T09:04:49.618Z,12.02
2022-12-24T09:07:16.659Z,16.30
2022-12-24T09:09:43.655Z,8.98
2022-12-24T09:12:10.705Z,8.98
2022-12-24T09:14:37.611Z,10.68
2022-12-24T09:17:04.651Z,9.68
2022-12-24T09:19:31.720Z,15.05
2022-12-24T09:21:58.632Z,11.43
2022-12-24T09:24:26.093Z,13.80
2022-12-24T09:26:57.799Z,19.58
2022-12-24T09:29:25.736Z,20.27
2022-12-24T09:31:55.259Z,14.80
2022-12-24T09:34:29.828Z,17.63
2022-12-24T09:36:59.905Z,16.35
2022-12-24T09:39:26.928Z,17.75
2022-12-24T09:42:40.224Z,21.27
2022-12-24T09:45:31.059Z,20.65
2022-12-24T09:48:05.524Z,20.55
2022-12-24T09:50:57.125Z,20.98
2022-12-24T09:53:34.949Z,59.55
2022-12-24T09:56:12.848Z,55.15
2022-12-24T09:59:05.757Z,31.58
2022-12-24T10:01:34.892Z,24.77
2022-12-24T10:04:16.946Z,30.08
2022-12-24T10:06:52.566Z,27.00
2022-12-24T10:09:54.675Z,30.23
2022-12-24T10:13:08.304Z,30.10
2022-12-24T10:16:01.585Z,23.08
2022-12-24T10:18:59.768Z,22.02
2022-12-24T10:22:13.141Z,22.98
2022-12-24T10:25:04.756Z,16.77
2022-12-24T10:27:39.909Z,23.13
2022-12-24T10:30:21.018Z,60.65
2022-12-24T10:32:51.942Z,28.33
2022-12-24T10:35:32.316Z,27.40
2022-12-24T10:37:59.336Z,20.75
2022-12-24T10:40:47.059Z,23.83
2022-12-24T10:43:22.128Z,25.80
2022-12-24T10:46:03.103Z,34.00
2022-12-24T10:48:46.410Z,26.42
2022-12-24T10:51:59.979Z,21.20
2022-12-24T10:54:29.638Z,20.08
2022-12-24T10:57:02.859Z,16.92
2022-12-24T10:59:50.422Z,16.65
2022-12-24T11:02:40.635Z,20.08
2022-12-24T11:05:28.097Z,11.80
2022-12-24T11:08:06.451Z,13.23
2022-12-24T11:10:39.723Z,12.65
2022-12-24T11:13:40.287Z,13.98
2022-12-24T11:16:29.690Z,14.85
2022-12-24T11:19:16.900Z,14.63
2022-12-24T11:21:44.600Z,29.20
2022-12-24T11:24:14.533Z,29.13
2022-12-24T11:26:44.732Z,34.75
2022-12-24T11:29:28.268Z,26.05
2022-12-24T11:32:19.101Z,15.88
2022-12-24T11:34:46.253Z,16.95
2022-12-24T11:37:22.880Z,24.63
2022-12-24T11:39:58.356Z,24.23
2022-12-24T11:42:39.192Z,24.80
2022-12-24T11:45:20.601Z,33.55
2022-12-24T11:47:47.655Z,16.83
2022-12-24T11:50:35.700Z,14.27
2022-12-24T11:53:18.258Z,13.90
2022-12-24T11:55:51.067Z,12.27
2022-12-24T11:58:45.014Z,12.60
2022-12-24T12:01:39.114Z,12.77
2022-12-24T12:04:31.084Z,9.63
2022-12-24T12:07:15.175Z,10.70
2022-12-24T12:10:08.615Z,13.02
2022-12-24T12:12:44.975Z,10.32
2022-12-24T12:15:25.853Z,13.50
2022-12-24T12:18:12.024Z,11.35
2022-12-24T12:20:50.311Z,15.32
2022-12-24T12:23:27.941Z,17.63
2022-12-24T12:26:22.339Z,18.77
2022-12-24T12:29:18.860Z,15.10
2022-12-24T12:31:55.393Z,15.32
2022-12-24T12:35:06.367Z,12.20
2022-12-24T12:37:41.526Z,13.05
2022-12-24T12:40:16.995Z,14.35
2022-12-24T12:43:15.986Z,14.63
2022-12-24T12:46:13.633Z,16.85
2022-12-24T12:48:58.584Z,15.15
2022-12-24T12:51:52.220Z,14.93
2022-12-24T12:54:25.813Z,15.27
2022-12-24T12:57:00.435Z,15.73
2022-12-24T13:00:03.092Z,17.02
2022-12-24T13:03:09.056Z,17.65
2022-12-24T13:06:12.430Z,16.73
2022-12-24T13:09:05.557Z,17.38
2022-12-24T13:11:41.487Z,22.10
2022-12-24T13:14:45.505Z,23.30
2022-12-24T13:17:50.384Z,23.52
2022-12-24T13:20:33.960Z,31.85
2022-12-24T13:23:12.841Z,32.33
2022-12-24T13:25:44.369Z,31.80
2022-12-24T13:28:23.721Z,35.45
2022-12-24T13:31:25.755Z,34.15
2022-12-24T13:33:59.280Z,24.30
2022-12-24T13:37:03.841Z,24.80
2022-12-24T13:40:05.777Z,27.30
2022-12-24T13:42:59.193Z,24.88
2022-12-24T13:47:56.823Z,19.85
2022-12-24T13:50:45.675Z,24.25
2022-12-24T13:53:50.648Z,28.33
2022-12-24T13:56:17.576Z,29.15
2022-12-24T13:58:52.832Z,31.48
2022-12-24T14:01:36.955Z,41.53
2022-12-24T14:04:09.451Z,43.45
2022-12-24T14:06:42.089Z,45.45
2022-12-24T14:09:19.308Z,46.50
2022-12-24T14:12:04.291Z,61.92
2022-12-24T14:14:43.329Z,53.72
2022-12-24T14:17:31.105Z,42.35
2022-12-24T14:20:01.979Z,39.55
2022-12-24T14:22:44.034Z,43.55
2022-12-24T14:25:21.528Z,46.05
2022-12-24T14:28:05.278Z,57.58
2022-12-24T14:30:32.632Z,53.17
2022-12-24T14:32:59.607Z,55.92
2022-12-24T14:35:36.924Z,60.88
2022-12-24T14:38:21.476Z,72.38
2022-12-24T14:41:18.616Z,55.45
2022-12-24T14:44:15.059Z,69.88
2022-12-24T14:47:01.713Z,61.60
2022-12-24T14:49:56.279Z,47.13
2022-12-24T14:53:05.392Z,50.33
2022-12-24T14:55:44.692Z,45.38
2022-12-24T14:58:28.895Z,40.50
2022-12-24T15:01:22.196Z,35.78
2022-12-24T15:06:53.976Z,31.63
2022-12-24T15:09:26.147Z,28.75
2022-12-24T15:11:59.243Z,34.77
2022-12-24T15:14:30.298Z,35.70
2022-12-24T15:17:04.317Z,37.50
2022-12-24T15:19:47.197Z,36.28
2022-12-24T15:22:32.093Z,39.40
2022-12-24T15:24:59.108Z,41.28
2022-12-24T15:27:32.328Z,40.95
2022-12-24T15:30:12.184Z,34.47
2022-12-24T15:32:39.157Z,30.75
2022-12-24T15:35:06.564Z,31.00
2022-12-24T15:37:39.962Z,32.83
2022-12-24T15:40:24.840Z,34.20
2022-12-24T15:42:52.992Z,36.40
2022-12-24T15:45:31.482Z,37.08
2022-12-24T15:48:10.518Z,36.03
2022-12-24T15:50:48.510Z,37.53
2022-12-24T15:53:33.129Z,37.05
2022-12-24T15:56:04.601Z,36.15
2022-12-24T15:58:37.773Z,36.67
2022-12-24T16:01:13.990Z,37.10
2022-12-24T16:04:01.512Z,37.13
2022-12-24T16:06:48.685Z,40.00
2022-12-24T16:09:45.807Z,41.42
2022-12-24T16:12:22.174Z,39.92
2022-12-24T16:14:59.576Z,39.63
2022-12-24T16:17:34.305Z,42.25
2022-12-24T16:20:07.416Z,42.83
2022-12-24T16:22:39.731Z,40.83
2022-12-24T16:36:48.555Z,51.88
2022-12-24T16:39:24.452Z,45.20
2022-12-24T16:42:18.846Z,44.17
2022-12-24T16:44:47.271Z,37.72
2022-12-24T16:47:33.650Z,37.50
2022-12-24T16:50:08.846Z,43.40
2022-12-24T16:55:02.850Z,38.47
2022-12-24T16:57:32.950Z,37.72
2022-12-24T16:59:59.985Z,38.33
2022-12-24T17:02:27.204Z,35.35
2022-12-24T17:04:55.135Z,38.70
2022-12-24T17:07:22.316Z,38.35
2022-12-24T17:09:49.346Z,35.28
2022-12-24T17:12:16.604Z,31.95
2022-12-24T17:14:43.754Z,32.33
2022-12-24T17:17:26.598Z,29.10
2022-12-24T17:19:55.524Z,26.83
2022-12-24T17:22:23.664Z,27.05
2022-12-24T17:24:50.773Z,28.08
2022-12-24T17:27:17.749Z,27.05
2022-12-24T17:29:44.963Z,27.05
2022-12-24T17:32:11.927Z,25.02
2022-12-24T17:34:39.127Z,24.25
2022-12-24T17:37:06.115Z,21.55
2022-12-24T17:39:33.179Z,24.48
2022-12-24T17:42:00.256Z,23.67
2022-12-24T17:44:27.435Z,23.02
2022-12-24T17:46:54.710Z,24.23
2022-12-24T17:49:21.916Z,20.27
2022-12-24T17:51:48.870Z,23.27
2022-12-24T17:54:15.952Z,24.73
2022-12-24T17:56:42.929Z,23.73
2022-12-24T17:59:09.867Z,22.48
2022-12-24T18:01:37.028Z,24.60
2022-12-24T18:04:04.925Z,24.77
2022-12-24T18:06:32.137Z,21.88
2022-12-24T18:09:02.265Z,20.30
2022-12-24T18:11:33.550Z,22.88
2022-12-24T18:14:05.367Z,20.35
2022-12-24T18:16:37.745Z,21.52
2022-12-24T18:19:10.412Z,21.05
2022-12-24T18:21:37.572Z,20.88
2022-12-24T18:24:05.567Z,20.73
2022-12-24T18:26:33.355Z,19.23
2022-12-24T18:29:04.597Z,21.23
2022-12-24T18:31:33.751Z,20.48
2022-12-24T18:34:04.414Z,20.80
2022-12-24T18:36:31.720Z,22.23
2022-12-24T18:38:59.256Z,20.58
2022-12-24T18:41:30.572Z,20.35
2022-12-24T18:43:58.833Z,22.00
2022-12-24T18:46:30.520Z,18.77
2022-12-24T18:48:59.714Z,18.98
2022-12-24T18:51:37.667Z,17.85
2022-12-24T18:54:05.841Z,19.17
2022-12-24T18:56:33.103Z,17.90
2022-12-24T18:59:02.700Z,19.55
2022-12-24T19:01:33.562Z,17.05
2022-12-24T19:04:01.104Z,15.60
2022-12-24T19:06:28.158Z,15.70
2022-12-24T19:08:57.627Z,14.60
2022-12-24T19:11:31.683Z,14.18
2022-12-24T19:14:00.342Z,11.57
2022-12-24T19:16:30.261Z,15.68
2022-12-24T19:18:57.916Z,16.40
2022-12-24T19:21:24.962Z,19.92
2022-12-24T19:23:52.253Z,19.75
2022-12-24T19:26:20.765Z,18.45
2022-12-24T19:28:48.429Z,20.40
2022-12-24T19:31:20.302Z,17.10
2022-12-24T19:33:56.893Z,17.63
2022-12-24T19:36:30.544Z,16.38
2022-12-24T19:38:59.272Z,19.38
2022-12-24T19:41:29.619Z,15.93
2022-12-24T19:44:01.282Z,16.88
2022-12-24T19:46:32.195Z,17.60
2022-12-24T19:49:05.026Z,16.60
2022-12-24T19:54:01.143Z,16.80
2022-12-24T19:56:30.771Z,15.85
2022-12-24T19:59:01.332Z,18.02
2022-12-24T20:01:31.784Z,19.08
2022-12-24T20:04:00.212Z,17.58
2022-12-24T20:06:31.861Z,17.70
2022-12-24T20:09:08.015Z,20.38
2022-12-24T20:11:35.607Z,19.38
2022-12-24T20:14:05.004Z,18.45
2022-12-24T20:16:33.149Z,17.65
2022-12-24T20:19:04.130Z,18.92
2022-12-24T20:21:32.326Z,18.10
2022-12-24T20:23:59.490Z,19.08
2022-12-24T20:26:29.241Z,18.25
2022-12-24T20:28:56.773Z,20.45
2022-12-24T20:31:28.571Z,20.85
2022-12-24T20:33:57.983Z,20.80
2022-12-24T20:48:08.096Z,30.10
2022-12-24T20:50:35.043Z,27.52
2022-12-24T20:53:01.972Z,26.55
2022-12-24T20:55:28.943Z,29.90
2022-12-24T20:57:55.936Z,29.15
2022-12-24T21:00:22.946Z,30.52
2022-12-24T21:02:50.018Z,28.77
2022-12-24T21:05:17.119Z,28.75
2022-12-24T21:07:44.096Z,28.90
2022-12-24T21:10:14.411Z,27.40
2022-12-24T21:12:49.194Z,27.15
2022-12-24T21:15:29.144Z,25.63
2022-12-24T21:17:58.718Z,26.52
2022-12-24T21:20:30.793Z,26.55
2022-12-24T21:23:01.314Z,26.20
2022-12-24T21:25:28.778Z,27.85
2022-12-24T21:27:56.005Z,27.15
2022-12-24T21:30:24.182Z,25.30
2022-12-24T21:32:51.864Z,28.08
2022-12-24T21:35:18.861Z,21.73
2022-12-24T21:37:46.086Z,22.40
2022-12-24T21:40:13.244Z,22.77
2022-12-24T21:42:43.379Z,24.38
2022-12-24T21:45:11.679Z,23.95
2022-12-24T21:47:38.739Z,22.95
2022-12-24T21:50:30.087Z,22.60
2022-12-24T21:53:18.383Z,23.83
2022-12-24T21:55:46.603Z,22.63
2022-12-24T21:58:13.671Z,24.67
2022-12-24T22:00:40.825Z,24.13
2022-12-24T22:03:08.209Z,23.58
2022-12-24T22:05:35.591Z,23.60
2022-12-24T22:08:21.673Z,24.33
2022-12-24T22:11:07.145Z,23.60
2022-12-24T22:13:34.573Z,22.23
2022-12-24T22:16:01.690Z,24.25
2022-12-24T22:18:28.745Z,26.33
2022-12-24T22:20:56.226Z,26.60
2022-12-24T22:23:23.218Z,26.33
2022-12-24T22:25:50.496Z,23.88
2022-12-24T22:28:17.545Z,25.10
2022-12-24T22:30:44.641Z,24.50
2022-12-24T22:33:11.711Z,23.70
2022-12-24T22:35:40.268Z,24.08
2022-12-24T22:38:12.718Z,25.70
2022-12-24T22:40:40.318Z,19.10
2022-12-24T22:43:07.564Z,23.90
2022-12-24T22:45:34.716Z,23.92
2022-12-24T22:48:01.718Z,23.77
2022-12-24T22:50:28.719Z,24.30
2022-12-24T22:52:55.761Z,22.23
2022-12-24T22:55:22.935Z,23.48
2022-12-24T22:57:49.965Z,22.55
2022-12-24T23:00:44.774Z,23.45
2022-12-24T23:03:12.890Z,22.98
2022-12-24T23:05:40.435Z,23.05
2022-12-24T23:08:08.189Z,24.77
2022-12-24T23:10:35.294Z,25.25
2022-12-24T23:13:21.176Z,24.48
2022-12-24T23:15:48.555Z,24.38
2022-12-24T23:18:15.779Z,25.02
2022-12-24T23:20:47.593Z,23.55
2022-12-24T23:23:15.808Z,23.70
2022-12-24T23:25:42.900Z,22.25
2022-12-24T23:28:09.908Z,21.50
2022-12-24T23:30:37.009Z,21.77
2022-12-24T23:33:04.032Z,24.63
2022-12-24T23:35:31.072Z,21.42
2022-12-24T23:37:57.981Z,23.90
2022-12-24T23:40:25.061Z,30.05
2022-12-24T23:42:52.016Z,29.95
2022-12-24T23:45:18.961Z,25.60
2022-12-24T23:47:48.870Z,23.48
2022-12-24T23:50:15.858Z,22.48
2022-12-24T23:52:42.830Z,23.10
2022-12-24T23:55:09.894Z,21.75
2022-12-24T23:57:36.880Z,22.95
